CST,Max TemperatureF,Mean TemperatureF,Min TemperatureF,Max Dew PointF,MeanDew PointF,Min DewpointF,Max Humidity, Mean Humidity, Min Humidity, Max Sea Level PressureIn, Mean Sea Level PressureIn, Min Sea Level PressureIn, Max VisibilityMiles, Mean VisibilityMiles, Min VisibilityMiles, Max Wind SpeedMPH, Mean Wind SpeedMPH, Max Gust SpeedMPH,PrecipitationIn, CloudCover, Events, WindDirDegrees
2012-12-1,76,65,54,59,56,51,93,74,54,30.08,30.00,29.92,10,10,7,26,7,36,0.00,5,,105
2012-12-2,78,68,57,61,59,56,90,72,54,30.06,30.01,29.98,10,10,9,20,6,25,0.00,4,,168
2012-12-3,80,68,56,58,56,53,93,66,39,30.00,29.95,29.87,10,10,9,25,7,33,0.00,2,,155
2012-12-4,69,55,41,61,49,34,90,62,34,30.31,30.12,29.95,10,10,2,16,6,18,0.10,5,Rain-Thunderstorm,341
2012-12-5,65,49,32,37,34,30,89,59,28,30.34,30.23,30.09,10,10,10,14,4,18,0.00,0,,84
2012-12-6,68,55,41,48,43,36,86,66,45,30.07,29.95,29.85,10,10,9,12,5,16,0.00,0,,89
2012-12-7,64,56,47,54,50,45,93,83,72,29.90,29.86,29.80,10,7,0,7,4,9,0.00,6,Fog,62
2012-12-8,63,56,48,54,51,46,100,83,65,29.93,29.87,29.81,8,3,0,9,4,10,0.00,7,Fog,255
2012-12-9,66,53,39,61,49,23,100,75,49,30.02,29.82,29.74,10,6,1,21,8,24,0.06,7,Rain,343
2012-12-10,42,33,23,21,18,15,74,56,38,30.16,30.09,30.02,10,10,10,18,10,23,T,2,,310
2012-12-11,49,35,20,23,18,10,84,53,21,30.27,30.20,30.14,10,10,8,7,1,12,0.00,0,,33
2012-12-12,56,38,20,25,19,14,84,52,19,30.37,30.29,30.25,10,10,10,8,2,10,0.00,0,,69
2012-12-13,63,47,30,28,24,19,72,46,19,30.34,30.28,30.19,10,10,10,14,4,17,0.00,0,,61
2012-12-14,58,47,35,43,32,24,77,53,28,30.22,30.08,29.87,10,10,6,15,6,18,0.12,4,Rain,71
2012-12-15,68,55,41,48,42,34,93,61,29,29.87,29.80,29.74,10,6,0,20,5,24,0.18,3,Fog-Rain,100
2012-12-16,71,56,41,42,38,33,83,54,25,29.78,29.72,29.62,10,10,10,12,3,14,0.00,0,,79
2012-12-17,53,45,36,40,37,32,85,68,50,29.86,29.79,29.70,10,8,4,16,7,22,T,3,,265
2012-12-18,68,50,32,40,34,30,96,64,32,29.84,29.82,29.76,10,6,0,9,3,12,0.00,0,Fog,55
2012-12-19,65,53,41,59,49,36,84,76,67,29.82,29.70,29.49,10,8,1,35,8,63,0.90,5,Rain-Thunderstorm,43
2012-12-20,59,46,33,50,23,14,77,53,28,30.35,30.19,29.95,10,10,10,36,21,49,0.00,4,,281
2012-12-21,56,41,26,27,20,14,69,46,22,30.43,30.35,30.29,10,10,10,9,6,12,0.00,0,,261
2012-12-22,67,47,27,31,24,9,92,51,10,30.30,30.18,30.03,10,10,10,18,4,24,0.00,0,,83
2012-12-23,69,54,39,47,40,29,83,64,45,30.01,29.88,29.79,10,10,10,14,3,17,0.00,2,,349
2012-12-24,50,41,31,40,30,27,82,64,46,30.05,29.95,29.84,10,7,3,17,6,21,0.00,0,,252
2012-12-25,43,38,32,32,28,22,89,71,53,30.02,29.91,29.84,10,5,0,20,11,26,0.76,7,Fog-Rain-Snow,19
2012-12-26,32,27,21,21,18,14,81,71,61,30.24,30.16,30.04,10,10,10,20,11,24,0.00,3,,274
2012-12-27,36,28,20,31,25,18,89,79,69,30.16,30.07,29.98,10,9,4,13,8,16,0.01,3,,92
2012-12-28,40,36,32,34,30,22,96,79,61,30.14,30.00,29.93,10,6,2,16,9,22,0.03,8,Rain-Snow,338
2012-12-29,37,30,23,21,18,15,75,64,52,30.47,30.35,30.14,10,10,7,16,7,20,0.00,0,,271
2012-12-30,43,31,19,29,22,15,88,66,43,30.50,30.41,30.29,10,9,6,9,4,12,0.01,1,Rain,76
2012-12-31,39,37,34,38,35,30,100,91,82,30.27,30.11,30.03,8,4,2,15,6,17,0.58,8,Rain,73